Tenville Junction, Iowa
Current Conditions -  °F | °C
As of 12:35 AM on Wednesday 26 Nov 2014 (Local Time) from KRDK Reporting Station
Unknown Precip Unknown Precip  
Wind Chill: 30°   Ceiling: 2400
Heat Index: 37°   Visibility: 7mi
Dew Point: 27°   Wind: 12mph
Humidity: 65%   Direction: 180°S
Pressure: 29.89"   Gusts: NA
Location:  40.9867°N, 94.9847°W
Report Text: KRDK 260635Z AUTO 18010KT 7SM -UP FEW009 SCT015 BKN024 03/M03 A2989 RMK AO2
Loading
Personal Weather Stations






























Interactive Weather Map New forecast layout! Learn more

10-Day Weather Forecast

Advertisements
Track Severe Weather on mobile